createdAt,value
2023-04-26T00:02:27.527Z,58.13
2023-04-26T00:04:56.768Z,58.28
2023-04-26T00:07:25.441Z,58.37
2023-04-26T00:09:53.602Z,58.41
2023-04-26T00:12:22.319Z,58.54
2023-04-26T00:14:50.680Z,58.60
2023-04-26T00:17:18.803Z,58.80
2023-04-26T00:19:47.160Z,58.83
2023-04-26T00:22:15.470Z,58.89
2023-04-26T00:24:43.697Z,59.02
2023-04-26T00:27:11.842Z,59.15
2023-04-26T00:29:39.885Z,59.23
2023-04-26T00:32:08.616Z,59.32
2023-04-26T00:34:38.181Z,59.35
2023-04-26T00:37:06.497Z,59.53
2023-04-26T00:39:34.757Z,59.65
2023-04-26T00:42:03.514Z,59.70
2023-04-26T00:44:31.633Z,59.89
2023-04-26T00:46:59.688Z,59.91
2023-04-26T00:49:28.452Z,60.01
2023-04-26T00:51:57.161Z,60.01
2023-04-26T00:54:26.281Z,60.19
2023-04-26T00:56:54.582Z,60.22
2023-04-26T00:59:23.685Z,60.24
2023-04-26T01:01:51.894Z,60.38
2023-04-26T01:04:20.323Z,60.33
2023-04-26T01:06:48.774Z,60.39
2023-04-26T01:09:18.274Z,60.42
2023-04-26T01:11:47.256Z,60.52
2023-04-26T01:14:16.239Z,60.42
2023-04-26T01:16:46.973Z,60.39
2023-04-26T01:19:15.470Z,60.38
2023-04-26T01:21:43.928Z,60.37
2023-04-26T01:24:13.792Z,60.46
2023-04-26T01:26:48.325Z,60.40
2023-04-26T01:29:18.137Z,60.45
2023-04-26T01:31:47.543Z,60.41
2023-04-26T01:34:16.574Z,60.53
2023-04-26T01:36:47.389Z,60.51
2023-04-26T01:39:15.974Z,60.44
2023-04-26T01:41:44.190Z,60.46
2023-04-26T01:44:12.576Z,60.53
2023-04-26T01:46:40.611Z,60.60
2023-04-26T01:49:08.716Z,60.60
2023-04-26T01:51:37.187Z,60.60
2023-04-26T01:54:07.968Z,60.59
2023-04-26T01:56:36.137Z,60.70
2023-04-26T01:59:04.544Z,60.77
2023-04-26T02:01:32.592Z,60.74
2023-04-26T02:04:00.855Z,60.82
2023-04-26T02:06:29.171Z,60.85
2023-04-26T02:08:57.623Z,60.91
2023-04-26T02:11:27.048Z,60.93
2023-04-26T02:13:55.277Z,61.03
2023-04-26T02:16:23.587Z,61.02
2023-04-26T02:18:53.683Z,60.99
2023-04-26T02:21:23.339Z,61.05
2023-04-26T02:23:51.431Z,61.12
2023-04-26T02:26:19.507Z,61.17
2023-04-26T02:28:47.573Z,61.17
2023-04-26T02:31:16.115Z,61.38
2023-04-26T02:33:44.395Z,61.40
2023-04-26T02:36:13.544Z,61.43
2023-04-26T02:38:41.813Z,61.40
2023-04-26T02:41:10.237Z,61.54
2023-04-26T02:43:38.442Z,61.61
2023-04-26T02:46:09.801Z,61.76
2023-04-26T02:48:37.936Z,61.75
2023-04-26T02:51:06.356Z,61.87
2023-04-26T02:53:34.948Z,61.82
2023-04-26T02:56:03.580Z,61.92
2023-04-26T02:58:31.729Z,62.05
2023-04-26T03:01:01.656Z,62.20
2023-04-26T03:03:31.320Z,62.14
2023-04-26T03:05:59.743Z,62.17
2023-04-26T03:08:27.946Z,62.30
2023-04-26T03:10:56.003Z,62.89
2023-04-26T03:13:25.137Z,63.56
2023-04-26T03:15:54.550Z,63.42
2023-04-26T03:18:22.898Z,63.00
2023-04-26T03:20:51.578Z,62.65
2023-04-26T03:23:19.801Z,62.21
2023-04-26T03:25:47.968Z,61.83
2023-04-26T03:28:16.495Z,61.43
2023-04-26T03:30:44.578Z,60.87
2023-04-26T03:33:13.650Z,60.23
2023-04-26T03:35:41.946Z,60.09
2023-04-26T03:38:10.211Z,59.44
2023-04-26T03:40:38.343Z,58.74
2023-04-26T03:43:06.769Z,58.75
2023-04-26T03:45:35.005Z,59.04
2023-04-26T03:48:03.183Z,59.56
2023-04-26T03:50:31.391Z,59.71
2023-04-26T03:52:59.661Z,60.08
2023-04-26T03:55:27.976Z,60.53
2023-04-26T03:57:56.077Z,60.70
2023-04-26T04:00:24.972Z,60.93
2023-04-26T04:02:53.411Z,61.08
2023-04-26T04:05:24.790Z,61.29
2023-04-26T04:07:52.987Z,61.39
2023-04-26T04:10:23.359Z,61.53
2023-04-26T04:12:53.265Z,61.62
2023-04-26T04:15:21.872Z,61.82
2023-04-26T04:17:50.910Z,62.09
2023-04-26T04:20:20.823Z,62.78
2023-04-26T04:22:48.972Z,63.31
2023-04-26T04:25:17.233Z,63.19
2023-04-26T04:27:45.689Z,62.96
2023-04-26T04:30:14.785Z,62.55
2023-04-26T04:32:46.982Z,62.05
2023-04-26T04:35:16.950Z,61.45
2023-04-26T04:37:45.633Z,60.84
2023-04-26T04:40:14.696Z,60.58
2023-04-26T04:42:46.759Z,60.39
2023-04-26T04:45:17.606Z,60.14
2023-04-26T04:47:46.472Z,59.28
2023-04-26T04:50:14.850Z,58.62
2023-04-26T04:52:44.415Z,58.51
2023-04-26T04:55:12.984Z,58.77
2023-04-26T04:57:42.909Z,59.06
2023-04-26T05:00:12.807Z,59.41
2023-04-26T05:02:48.658Z,59.75
2023-04-26T05:05:18.025Z,60.09
2023-04-26T05:07:46.229Z,60.37
2023-04-26T05:10:15.157Z,60.51
2023-04-26T05:12:43.360Z,60.73
2023-04-26T05:15:11.740Z,61.13
2023-04-26T05:17:42.344Z,61.31
2023-04-26T05:20:19.618Z,61.47
2023-04-26T05:22:48.361Z,61.66
2023-04-26T05:25:17.280Z,61.76
2023-04-26T05:27:47.715Z,62.09
2023-04-26T05:30:36.416Z,62.82
2023-04-26T05:33:23.191Z,63.54
2023-04-26T05:36:07.257Z,63.38
2023-04-26T05:38:37.271Z,62.94
2023-04-26T05:41:05.627Z,62.57
2023-04-26T05:43:34.607Z,62.03
2023-04-26T05:46:02.865Z,60.98
2023-04-26T05:48:31.420Z,60.93
2023-04-26T05:50:59.476Z,60.35
2023-04-26T05:53:27.610Z,60.29
2023-04-26T05:55:56.022Z,60.03
2023-04-26T05:58:24.267Z,59.31
2023-04-26T06:00:53.137Z,58.40
2023-04-26T06:03:21.402Z,58.20
2023-04-26T06:05:49.946Z,58.44
2023-04-26T06:08:18.033Z,58.66
2023-04-26T06:10:47.159Z,58.92
2023-04-26T06:13:15.272Z,59.10
2023-04-26T06:15:44.636Z,59.23
2023-04-26T06:18:12.826Z,59.53
2023-04-26T06:20:41.225Z,59.66
2023-04-26T06:23:09.996Z,59.95
2023-04-26T06:25:38.178Z,60.14
2023-04-26T06:28:06.666Z,60.33
2023-04-26T06:30:35.647Z,60.25
2023-04-26T06:33:04.357Z,60.21
2023-04-26T06:35:33.315Z,60.24
2023-04-26T06:38:01.704Z,59.95
2023-04-26T06:40:29.748Z,59.94
2023-04-26T06:42:57.926Z,59.93
2023-04-26T06:45:39.711Z,60.07
2023-04-26T06:48:09.130Z,60.14
2023-04-26T06:50:40.665Z,59.95
2023-04-26T06:53:09.179Z,59.95
2023-04-26T06:55:37.499Z,59.99
2023-04-26T06:58:06.136Z,59.89
2023-04-26T07:00:34.722Z,60.06
2023-04-26T07:03:03.184Z,60.21
2023-04-26T07:05:31.910Z,60.18
2023-04-26T07:08:00.201Z,60.02
2023-04-26T07:10:28.902Z,60.14
2023-04-26T07:12:57.260Z,60.30
2023-04-26T07:15:25.514Z,60.35
2023-04-26T07:17:54.037Z,60.31
2023-04-26T07:20:23.257Z,60.32
2023-04-26T07:22:51.652Z,60.32
2023-04-26T07:25:20.041Z,60.19
2023-04-26T07:27:48.282Z,60.04
2023-04-26T07:30:16.454Z,60.17
2023-04-26T07:32:44.790Z,60.30
2023-04-26T07:35:16.544Z,60.40
2023-04-26T07:37:45.324Z,60.26
2023-04-26T07:40:14.134Z,60.37
2023-04-26T07:42:42.682Z,60.51
2023-04-26T07:45:11.546Z,60.49
2023-04-26T07:47:39.774Z,60.56
2023-04-26T07:50:09.139Z,60.61
2023-04-26T07:52:37.619Z,60.73
2023-04-26T07:55:06.796Z,60.66
2023-04-26T07:57:35.089Z,60.60
2023-04-26T08:00:08.089Z,60.56
2023-04-26T08:02:45.182Z,60.79
2023-04-26T08:05:15.255Z,61.15
2023-04-26T08:07:43.776Z,61.65
2023-04-26T08:10:12.109Z,61.95
2023-04-26T08:12:40.869Z,62.13
2023-04-26T08:15:09.822Z,62.50
2023-04-26T08:17:38.349Z,62.91
2023-04-26T08:20:07.424Z,63.99
2023-04-26T08:22:36.004Z,64.14
2023-04-26T08:25:04.907Z,63.22
2023-04-26T08:27:34.648Z,63.20
2023-04-26T08:30:03.507Z,63.42
2023-04-26T08:32:34.233Z,63.77
2023-04-26T08:35:02.653Z,63.65
2023-04-26T08:37:31.288Z,63.84
2023-04-26T08:39:59.723Z,63.69
2023-04-26T08:42:29.038Z,63.76
2023-04-26T08:45:01.606Z,62.43
2023-04-26T08:47:47.597Z,62.23
2023-04-26T08:50:19.352Z,62.38
2023-04-26T08:52:52.373Z,61.97
2023-04-26T08:55:22.014Z,61.91
2023-04-26T08:57:51.153Z,62.13
2023-04-26T09:00:19.873Z,62.13
2023-04-26T09:02:51.440Z,62.05
2023-04-26T09:05:24.827Z,62.29
2023-04-26T09:07:57.515Z,62.52
2023-04-26T09:10:26.573Z,62.21
2023-04-26T09:12:55.812Z,62.40
2023-04-26T09:15:26.554Z,63.03
2023-04-26T09:17:54.931Z,63.13
2023-04-26T09:20:31.392Z,63.21
2023-04-26T09:23:08.147Z,63.07
2023-04-26T09:25:37.509Z,63.06
2023-04-26T09:28:21.431Z,63.18
2023-04-26T09:30:50.765Z,63.18
2023-04-26T09:33:19.644Z,63.10
2023-04-26T09:35:47.943Z,63.23
2023-04-26T09:38:19.776Z,62.78
2023-04-26T09:40:51.512Z,63.24
2023-04-26T09:43:22.068Z,63.52
2023-04-26T09:45:58.434Z,63.62
2023-04-26T09:48:30.419Z,63.55
2023-04-26T09:51:08.817Z,63.00
2023-04-26T09:53:39.397Z,62.79
2023-04-26T09:56:10.359Z,62.55
2023-04-26T09:58:40.861Z,62.83
2023-04-26T10:01:10.548Z,62.90
2023-04-26T10:03:39.868Z,63.10
2023-04-26T10:06:09.149Z,63.39
2023-04-26T10:08:37.539Z,63.59
2023-04-26T10:11:07.983Z,63.56
2023-04-26T10:13:36.524Z,62.86
2023-04-26T10:16:05.138Z,63.26
2023-04-26T10:18:34.157Z,63.08
2023-04-26T10:21:18.453Z,64.29
2023-04-26T10:23:48.173Z,64.39
2023-04-26T10:26:48.994Z,65.02
2023-04-26T10:29:17.470Z,65.10
2023-04-26T10:32:01.954Z,65.24
2023-04-26T10:34:32.231Z,65.14
2023-04-26T10:37:11.579Z,64.66
2023-04-26T10:39:41.508Z,65.33
2023-04-26T10:42:28.784Z,65.08
2023-04-26T10:45:00.434Z,65.32
2023-04-26T10:47:32.060Z,65.59
2023-04-26T10:50:09.185Z,65.75
2023-04-26T10:52:58.069Z,65.66
2023-04-26T10:55:43.269Z,66.04
2023-04-26T10:58:33.254Z,65.61
2023-04-26T11:01:05.076Z,65.75
2023-04-26T11:03:34.359Z,65.34
2023-04-26T11:06:07.419Z,65.59
2023-04-26T11:08:37.463Z,66.15
2023-04-26T11:11:12.345Z,66.05
2023-04-26T11:13:44.337Z,66.14
2023-04-26T11:16:14.516Z,65.85
2023-04-26T11:18:46.978Z,65.18
2023-04-26T11:21:19.691Z,64.36
2023-04-26T11:23:54.731Z,64.56
2023-04-26T11:26:23.200Z,64.44
2023-04-26T11:28:51.682Z,64.02
2023-04-26T11:31:20.109Z,63.86
2023-04-26T11:33:50.819Z,63.42
2023-04-26T11:36:19.960Z,63.40
2023-04-26T11:38:48.373Z,62.91
2023-04-26T11:41:17.516Z,61.98
2023-04-26T11:43:45.888Z,61.07
2023-04-26T11:46:14.232Z,60.75
2023-04-26T11:48:42.740Z,60.07
2023-04-26T11:51:12.166Z,59.14
2023-04-26T11:53:42.087Z,58.64
2023-04-26T11:56:16.303Z,59.26
2023-04-26T11:58:49.233Z,58.19
2023-04-26T12:01:25.632Z,59.66
2023-04-26T12:03:56.235Z,60.08
2023-04-26T12:06:46.335Z,60.29
2023-04-26T12:09:14.512Z,59.76
2023-04-26T12:11:49.222Z,59.92
2023-04-26T12:14:17.428Z,59.55
2023-04-26T12:16:46.860Z,57.96
2023-04-26T12:19:17.445Z,57.11
2023-04-26T12:21:47.327Z,56.65
2023-04-26T12:24:37.307Z,58.49
2023-04-26T12:27:07.285Z,57.48
2023-04-26T12:29:35.891Z,57.65
2023-04-26T12:32:04.573Z,54.46
2023-04-26T12:34:32.849Z,55.03
2023-04-26T12:37:01.367Z,55.23
2023-04-26T12:39:31.283Z,54.33
2023-04-26T12:41:59.511Z,53.18
2023-04-26T12:44:27.937Z,54.62
2023-04-26T12:46:56.074Z,54.95
2023-04-26T12:49:24.135Z,54.72
2023-04-26T12:51:52.362Z,54.23
2023-04-26T12:54:20.607Z,53.62
2023-04-26T12:56:49.609Z,53.13
2023-04-26T12:59:18.170Z,52.18
2023-04-26T13:01:46.569Z,53.09
2023-04-26T13:04:15.268Z,52.79
2023-04-26T13:06:43.659Z,52.34
2023-04-26T13:09:14.084Z,52.26
2023-04-26T13:11:42.190Z,51.53
2023-04-26T13:14:10.637Z,51.69
2023-04-26T13:16:44.104Z,51.92
2023-04-26T13:19:12.649Z,51.40
2023-04-26T13:21:42.123Z,51.37
2023-04-26T13:24:10.479Z,50.87
2023-04-26T13:26:38.577Z,49.90
2023-04-26T13:29:06.830Z,48.92
2023-04-26T13:31:34.925Z,47.25
2023-04-26T13:34:05.770Z,46.80
2023-04-26T13:36:34.661Z,45.73
2023-04-26T13:39:05.514Z,47.51
2023-04-26T13:41:36.319Z,47.52
2023-04-26T13:44:06.082Z,45.83
2023-04-26T13:46:35.063Z,46.69
2023-04-26T13:49:03.554Z,47.97
2023-04-26T13:51:34.179Z,47.68
2023-04-26T13:54:02.720Z,47.05
2023-04-26T13:56:31.088Z,47.78
2023-04-26T13:59:03.917Z,47.36
2023-04-26T14:01:34.004Z,44.09
2023-04-26T14:04:02.946Z,44.25
2023-04-26T14:06:32.978Z,44.36
2023-04-26T14:09:01.438Z,44.17
2023-04-26T14:11:31.073Z,44.35
2023-04-26T14:13:59.571Z,43.76
2023-04-26T14:16:27.745Z,40.85
2023-04-26T14:18:55.825Z,43.27
2023-04-26T14:21:24.888Z,41.67
2023-04-26T14:23:52.959Z,40.17
2023-04-26T14:26:21.853Z,41.94
2023-04-26T14:39:16.350Z,40.28
2023-04-26T14:41:44.397Z,39.98
2023-04-26T14:44:12.869Z,40.19
2023-04-26T14:46:41.781Z,37.87
2023-04-26T14:49:10.077Z,40.18
2023-04-26T14:51:38.202Z,41.14
2023-04-26T14:54:06.811Z,41.29
2023-04-26T14:56:35.804Z,41.06
2023-04-26T14:59:04.546Z,40.63
2023-04-26T15:01:33.197Z,41.67
2023-04-26T15:04:01.726Z,41.51
2023-04-26T15:06:33.793Z,42.08
2023-04-26T15:09:02.294Z,42.65
2023-04-26T15:11:30.389Z,42.68
2023-04-26T15:13:58.544Z,42.30
2023-04-26T15:16:26.916Z,42.93
2023-04-26T15:18:55.041Z,42.72
2023-04-26T15:21:23.223Z,42.28
2023-04-26T15:23:51.310Z,43.09
2023-04-26T15:26:19.941Z,43.62
2023-04-26T15:28:48.269Z,44.13
2023-04-26T15:31:16.434Z,43.14
2023-04-26T15:33:44.509Z,43.65
2023-04-26T15:36:12.666Z,43.69
2023-04-26T15:38:45.596Z,43.46
2023-04-26T15:41:14.189Z,43.55
2023-04-26T15:43:42.233Z,43.32
2023-04-26T15:46:14.268Z,42.25
2023-04-26T15:48:42.995Z,42.40
2023-04-26T15:51:11.390Z,41.25
2023-04-26T15:53:43.580Z,42.04
2023-04-26T15:56:16.077Z,40.87
2023-04-26T15:58:45.435Z,40.77
2023-04-26T16:01:14.323Z,39.16
2023-04-26T16:03:46.402Z,39.94
2023-04-26T16:06:16.174Z,40.34
2023-04-26T16:08:45.159Z,38.61
2023-04-26T16:11:13.331Z,38.77
2023-04-26T16:13:41.723Z,40.30
2023-04-26T16:16:11.013Z,40.60
2023-04-26T16:18:43.891Z,39.41
2023-04-26T16:21:13.317Z,40.65
2023-04-26T16:23:42.317Z,40.61
2023-04-26T16:26:10.420Z,41.06
2023-04-26T16:28:38.536Z,41.81
2023-04-26T16:31:07.097Z,41.91
2023-04-26T16:33:35.205Z,41.97
2023-04-26T16:36:03.670Z,41.31
2023-04-26T16:38:31.834Z,41.62
2023-04-26T16:41:01.820Z,41.59
2023-04-26T16:43:32.102Z,41.93
2023-04-26T16:46:05.098Z,41.52
2023-04-26T16:48:35.170Z,41.54
2023-04-26T16:51:07.121Z,41.94
2023-04-26T16:53:37.180Z,41.48
2023-04-26T16:56:06.401Z,41.89
2023-04-26T16:58:34.391Z,41.79
2023-04-26T17:01:03.231Z,42.10
2023-04-26T17:03:31.838Z,41.90
2023-04-26T17:06:00.238Z,42.07
2023-04-26T17:08:28.392Z,42.13
2023-04-26T17:10:56.481Z,42.30
2023-04-26T17:13:29.805Z,42.57
2023-04-26T17:15:58.338Z,42.89
2023-04-26T17:18:26.816Z,42.93
2023-04-26T17:20:56.675Z,43.20
2023-04-26T17:23:24.810Z,43.05
2023-04-26T17:25:55.143Z,43.31
2023-04-26T17:28:23.888Z,43.51
2023-04-26T17:30:52.207Z,43.45
2023-04-26T17:33:20.579Z,43.41
2023-04-26T17:35:48.978Z,43.64
2023-04-26T17:38:17.224Z,43.47
2023-04-26T17:40:45.996Z,43.68
2023-04-26T17:43:14.098Z,43.74
2023-04-26T17:45:42.576Z,43.88
2023-04-26T17:48:13.413Z,43.65
2023-04-26T17:50:42.153Z,43.80
2023-04-26T17:53:10.342Z,44.16
2023-04-26T17:55:38.472Z,43.95
2023-04-26T17:58:07.208Z,44.11
2023-04-26T18:00:35.476Z,44.28
2023-04-26T18:03:05.318Z,44.40
2023-04-26T18:05:34.105Z,44.51
2023-04-26T18:08:02.254Z,44.72
2023-04-26T18:10:30.999Z,44.94
2023-04-26T18:12:59.421Z,45.05
2023-04-26T18:15:27.610Z,45.20
2023-04-26T18:17:55.942Z,45.28
2023-04-26T18:20:24.680Z,45.44
2023-04-26T18:22:52.708Z,45.56
2023-04-26T18:25:21.011Z,45.68
2023-04-26T18:27:49.778Z,45.82
2023-04-26T18:30:18.477Z,45.94
2023-04-26T18:32:46.548Z,46.08
2023-04-26T18:35:14.858Z,46.28
2023-04-26T18:37:43.026Z,46.44
2023-04-26T18:40:11.920Z,46.57
2023-04-26T18:42:40.414Z,46.75
2023-04-26T18:45:09.543Z,46.97
2023-04-26T18:47:37.735Z,47.26
2023-04-26T18:50:07.158Z,47.45
2023-04-26T18:52:35.778Z,47.63
2023-04-26T18:55:09.055Z,47.80
2023-04-26T18:57:37.275Z,47.98
2023-04-26T19:00:07.948Z,48.19
2023-04-26T19:02:42.308Z,48.39
2023-04-26T19:05:11.797Z,48.56
2023-04-26T19:07:45.352Z,48.81
2023-04-26T19:10:18.676Z,49.09
2023-04-26T19:12:47.625Z,49.18
2023-04-26T19:15:16.734Z,49.45
2023-04-26T19:17:44.919Z,49.54
2023-04-26T19:20:15.323Z,49.95
2023-04-26T19:22:46.291Z,50.02
2023-04-26T19:25:14.970Z,50.14
2023-04-26T19:27:42.987Z,50.24
2023-04-26T19:30:11.618Z,50.43
2023-04-26T19:32:39.849Z,50.55
2023-04-26T19:35:10.160Z,50.68
2023-04-26T19:37:38.228Z,50.91
2023-04-26T19:40:07.691Z,51.04
2023-04-26T19:42:36.184Z,51.21
2023-04-26T19:45:04.700Z,51.61
2023-04-26T19:47:33.048Z,51.56
2023-04-26T19:50:01.376Z,51.58
2023-04-26T19:52:29.590Z,51.89
2023-04-26T19:54:57.647Z,51.87
2023-04-26T19:57:26.226Z,52.03
2023-04-26T19:59:54.374Z,52.29
2023-04-26T20:02:22.545Z,52.36
2023-04-26T20:04:51.009Z,52.59
2023-04-26T20:07:19.169Z,52.52
2023-04-26T20:09:47.344Z,52.57
2023-04-26T20:12:15.636Z,52.61
2023-04-26T20:14:44.092Z,52.84
2023-04-26T20:17:12.108Z,53.08
2023-04-26T20:19:40.178Z,53.13
2023-04-26T20:22:08.576Z,53.13
2023-04-26T20:24:36.596Z,53.37
2023-04-26T20:27:04.701Z,53.42
2023-04-26T20:29:32.992Z,53.72
2023-04-26T20:32:01.416Z,53.69
2023-04-26T20:34:29.532Z,53.77
2023-04-26T20:36:57.738Z,53.83
2023-04-26T20:39:28.349Z,54.13
2023-04-26T20:41:56.391Z,54.30
2023-04-26T20:44:24.524Z,54.44
2023-04-26T20:46:52.681Z,54.46
2023-04-26T20:49:21.240Z,54.58
2023-04-26T20:51:49.308Z,54.69
2023-04-26T20:54:17.386Z,54.66
2023-04-26T20:56:49.203Z,54.89
2023-04-26T20:59:17.368Z,55.12
2023-04-26T21:01:45.478Z,55.32
2023-04-26T21:04:14.002Z,55.49
2023-04-26T21:06:46.625Z,55.74
2023-04-26T21:09:15.049Z,55.84
2023-04-26T21:11:48.835Z,56.10
2023-04-26T21:14:17.424Z,56.55
2023-04-26T21:16:45.438Z,56.60
2023-04-26T21:19:13.475Z,56.71
2023-04-26T21:21:41.710Z,56.90
2023-04-26T21:24:10.048Z,57.00
2023-04-26T21:26:38.066Z,57.05
2023-04-26T21:29:07.327Z,57.10
2023-04-26T21:31:36.205Z,57.33
2023-04-26T21:34:04.349Z,57.75
2023-04-26T21:36:32.854Z,57.81
2023-04-26T21:39:01.528Z,57.93
2023-04-26T21:41:29.733Z,58.02
2023-04-26T21:43:59.109Z,58.24
2023-04-26T21:46:27.200Z,58.61
2023-04-26T21:48:55.563Z,58.44
2023-04-26T21:51:23.755Z,58.53
2023-04-26T21:53:51.803Z,58.69
2023-04-26T21:56:19.892Z,58.82
2023-04-26T21:58:48.409Z,58.99
2023-04-26T22:01:16.804Z,59.07
2023-04-26T22:03:44.990Z,59.18
2023-04-26T22:06:13.214Z,59.30
2023-04-26T22:08:41.391Z,59.62
2023-04-26T22:11:09.568Z,59.55
2023-04-26T22:13:37.680Z,59.50
2023-04-26T22:16:06.287Z,59.66
2023-04-26T22:18:35.810Z,60.11
2023-04-26T22:21:03.968Z,60.07
2023-04-26T22:23:39.184Z,60.13
2023-04-26T22:26:07.375Z,60.00
2023-04-26T22:28:35.647Z,60.36
2023-04-26T22:31:03.919Z,60.70
2023-04-26T22:33:32.098Z,60.66
2023-04-26T22:36:00.173Z,60.82
2023-04-26T22:38:28.315Z,61.10
2023-04-26T22:40:56.819Z,61.15
2023-04-26T22:43:25.080Z,61.34
2023-04-26T22:45:53.210Z,61.40
2023-04-26T22:48:21.750Z,61.43
2023-04-26T22:50:55.285Z,61.53
2023-04-26T22:53:26.789Z,61.63
2023-04-26T22:55:54.828Z,61.63
2023-04-26T22:58:22.862Z,61.48
2023-04-26T23:00:51.342Z,62.23
2023-04-26T23:03:19.495Z,62.61
2023-04-26T23:05:47.957Z,62.62
2023-04-26T23:08:16.749Z,62.95
2023-04-26T23:10:44.800Z,62.87
2023-04-26T23:13:15.461Z,62.61
2023-04-26T23:15:43.777Z,62.04
2023-04-26T23:18:11.932Z,61.81
2023-04-26T23:20:40.188Z,61.65
2023-04-26T23:23:08.227Z,61.41
2023-04-26T23:25:36.541Z,60.66
2023-04-26T23:28:04.895Z,60.68
2023-04-26T23:30:32.999Z,60.67
2023-04-26T23:33:01.401Z,60.42
2023-04-26T23:35:29.890Z,60.31
2023-04-26T23:37:58.099Z,60.31
2023-04-26T23:40:26.208Z,60.05
2023-04-26T23:42:54.309Z,59.96
2023-04-26T23:45:23.903Z,60.03
2023-04-26T23:47:51.977Z,59.40
2023-04-26T23:50:20.090Z,58.69
2023-04-26T23:52:48.611Z,58.69
2023-04-26T23:55:16.721Z,59.18
2023-04-26T23:57:44.814Z,59.46
